sensor_id;sensor_type;location;lat;lon;timestamp;P1;durP1;ratioP1;P2;durP2;ratioP2
62654;SDS011;48717;55.556;37.816;2023-03-16T00:02:23;30.25;;;15.93;;
62654;SDS011;48717;55.556;37.816;2023-03-16T00:04:50;36.40;;;18.08;;
62654;SDS011;48717;55.556;37.816;2023-03-16T00:07:17;37.13;;;19.20;;
62654;SDS011;48717;55.556;37.816;2023-03-16T00:09:44;30.83;;;15.27;;
62654;SDS011;48717;55.556;37.816;2023-03-16T00:12:13;33.22;;;15.98;;
62654;SDS011;48717;55.556;37.816;2023-03-16T00:14:43;31.05;;;16.08;;
62654;SDS011;48717;55.556;37.816;2023-03-16T00:17:12;32.10;;;16.83;;
62654;SDS011;48717;55.556;37.816;2023-03-16T00:19:49;33.22;;;16.80;;
62654;SDS011;48717;55.556;37.816;2023-03-16T00:22:23;30.52;;;15.93;;
62654;SDS011;48717;55.556;37.816;2023-03-16T00:24:52;23.27;;;12.93;;
62654;SDS011;48717;55.556;37.816;2023-03-16T00:27:20;31.83;;;14.65;;
62654;SDS011;48717;55.556;37.816;2023-03-16T00:29:50;29.35;;;15.60;;
62654;SDS011;48717;55.556;37.816;2023-03-16T00:32:26;27.92;;;14.80;;
62654;SDS011;48717;55.556;37.816;2023-03-16T00:34:55;28.58;;;14.73;;
62654;SDS011;48717;55.556;37.816;2023-03-16T00:37:23;30.80;;;15.85;;
62654;SDS011;48717;55.556;37.816;2023-03-16T00:39:51;32.58;;;14.80;;
62654;SDS011;48717;55.556;37.816;2023-03-16T00:42:22;20.95;;;10.85;;
62654;SDS011;48717;55.556;37.816;2023-03-16T00:44:54;31.08;;;16.15;;
62654;SDS011;48717;55.556;37.816;2023-03-16T00:47:24;28.63;;;14.33;;
62654;SDS011;48717;55.556;37.816;2023-03-16T00:49:54;24.92;;;13.05;;
62654;SDS011;48717;55.556;37.816;2023-03-16T00:52:21;25.63;;;13.23;;
62654;SDS011;48717;55.556;37.816;2023-03-16T00:54:49;29.23;;;13.52;;
62654;SDS011;48717;55.556;37.816;2023-03-16T00:57:19;32.97;;;15.75;;
62654;SDS011;48717;55.556;37.816;2023-03-16T00:59:47;26.15;;;13.15;;
62654;SDS011;48717;55.556;37.816;2023-03-16T01:02:15;29.33;;;15.70;;
62654;SDS011;48717;55.556;37.816;2023-03-16T01:04:44;30.30;;;15.63;;
62654;SDS011;48717;55.556;37.816;2023-03-16T01:07:12;22.05;;;10.13;;
62654;SDS011;48717;55.556;37.816;2023-03-16T01:09:40;19.05;;;9.68;;
62654;SDS011;48717;55.556;37.816;2023-03-16T01:12:10;34.20;;;16.40;;
62654;SDS011;48717;55.556;37.816;2023-03-16T01:14:40;34.67;;;16.38;;
62654;SDS011;48717;55.556;37.816;2023-03-16T01:17:08;32.53;;;16.58;;
62654;SDS011;48717;55.556;37.816;2023-03-16T01:19:35;29.20;;;12.00;;
62654;SDS011;48717;55.556;37.816;2023-03-16T01:22:04;24.67;;;10.52;;
62654;SDS011;48717;55.556;37.816;2023-03-16T01:24:32;34.00;;;17.33;;
62654;SDS011;48717;55.556;37.816;2023-03-16T01:27:00;27.38;;;13.73;;
62654;SDS011;48717;55.556;37.816;2023-03-16T01:29:28;29.35;;;15.40;;
62654;SDS011;48717;55.556;37.816;2023-03-16T01:31:57;29.38;;;14.90;;
62654;SDS011;48717;55.556;37.816;2023-03-16T01:34:25;26.65;;;14.80;;
62654;SDS011;48717;55.556;37.816;2023-03-16T01:36:53;16.52;;;8.70;;
62654;SDS011;48717;55.556;37.816;2023-03-16T01:39:26;27.05;;;14.10;;
62654;SDS011;48717;55.556;37.816;2023-03-16T01:41:53;22.65;;;10.68;;
62654;SDS011;48717;55.556;37.816;2023-03-16T01:44:22;19.40;;;9.95;;
62654;SDS011;48717;55.556;37.816;2023-03-16T01:47:00;16.17;;;8.90;;
62654;SDS011;48717;55.556;37.816;2023-03-16T01:49:28;15.27;;;6.65;;
62654;SDS011;48717;55.556;37.816;2023-03-16T01:52:01;24.08;;;10.32;;
62654;SDS011;48717;55.556;37.816;2023-03-16T01:54:35;25.88;;;12.70;;
62654;SDS011;48717;55.556;37.816;2023-03-16T02:02:47;23.23;;;12.25;;
62654;SDS011;48717;55.556;37.816;2023-03-16T02:05:36;22.42;;;10.95;;
62654;SDS011;48717;55.556;37.816;2023-03-16T02:08:11;21.67;;;9.90;;
62654;SDS011;48717;55.556;37.816;2023-03-16T02:10:39;12.25;;;7.18;;
62654;SDS011;48717;55.556;37.816;2023-03-16T02:13:07;20.50;;;8.77;;
62654;SDS011;48717;55.556;37.816;2023-03-16T02:15:34;18.80;;;10.10;;
62654;SDS011;48717;55.556;37.816;2023-03-16T02:18:01;19.27;;;10.23;;
62654;SDS011;48717;55.556;37.816;2023-03-16T02:23:03;21.55;;;10.10;;
62654;SDS011;48717;55.556;37.816;2023-03-16T02:30:45;22.88;;;11.30;;
62654;SDS011;48717;55.556;37.816;2023-03-16T02:33:13;20.52;;;9.70;;
62654;SDS011;48717;55.556;37.816;2023-03-16T02:35:43;13.93;;;7.55;;
62654;SDS011;48717;55.556;37.816;2023-03-16T02:38:10;11.80;;;6.10;;
62654;SDS011;48717;55.556;37.816;2023-03-16T02:40:43;23.13;;;11.43;;
62654;SDS011;48717;55.556;37.816;2023-03-16T02:43:19;20.20;;;10.25;;
62654;SDS011;48717;55.556;37.816;2023-03-16T02:46:01;19.20;;;9.10;;
62654;SDS011;48717;55.556;37.816;2023-03-16T02:48:48;16.55;;;9.70;;
62654;SDS011;48717;55.556;37.816;2023-03-16T02:51:21;19.38;;;10.07;;
62654;SDS011;48717;55.556;37.816;2023-03-16T02:53:48;19.08;;;9.00;;
62654;SDS011;48717;55.556;37.816;2023-03-16T02:56:16;17.77;;;9.38;;
62654;SDS011;48717;55.556;37.816;2023-03-16T02:58:44;20.05;;;9.57;;
62654;SDS011;48717;55.556;37.816;2023-03-16T03:01:15;17.73;;;9.70;;
62654;SDS011;48717;55.556;37.816;2023-03-16T03:03:42;24.90;;;9.50;;
62654;SDS011;48717;55.556;37.816;2023-03-16T03:06:09;17.45;;;8.18;;
62654;SDS011;48717;55.556;37.816;2023-03-16T03:08:36;19.38;;;9.02;;
62654;SDS011;48717;55.556;37.816;2023-03-16T03:11:03;17.08;;;10.15;;
62654;SDS011;48717;55.556;37.816;2023-03-16T03:13:31;12.98;;;6.70;;
62654;SDS011;48717;55.556;37.816;2023-03-16T03:15:58;18.90;;;9.80;;
62654;SDS011;48717;55.556;37.816;2023-03-16T03:18:27;16.08;;;8.15;;
62654;SDS011;48717;55.556;37.816;2023-03-16T03:20:53;15.45;;;7.35;;
62654;SDS011;48717;55.556;37.816;2023-03-16T03:23:21;20.15;;;10.02;;
62654;SDS011;48717;55.556;37.816;2023-03-16T03:25:48;20.33;;;10.07;;
62654;SDS011;48717;55.556;37.816;2023-03-16T03:28:16;20.63;;;9.32;;
62654;SDS011;48717;55.556;37.816;2023-03-16T03:30:44;24.83;;;11.77;;
62654;SDS011;48717;55.556;37.816;2023-03-16T03:33:11;24.15;;;10.93;;
62654;SDS011;48717;55.556;37.816;2023-03-16T03:35:38;23.10;;;11.15;;
62654;SDS011;48717;55.556;37.816;2023-03-16T03:38:05;21.63;;;10.73;;
62654;SDS011;48717;55.556;37.816;2023-03-16T03:40:34;20.42;;;8.55;;
62654;SDS011;48717;55.556;37.816;2023-03-16T03:43:02;22.10;;;10.88;;
62654;SDS011;48717;55.556;37.816;2023-03-16T03:45:35;19.98;;;9.95;;
62654;SDS011;48717;55.556;37.816;2023-03-16T03:48:02;20.65;;;10.10;;
62654;SDS011;48717;55.556;37.816;2023-03-16T03:50:29;17.95;;;9.40;;
62654;SDS011;48717;55.556;37.816;2023-03-16T03:53:17;27.02;;;12.23;;
62654;SDS011;48717;55.556;37.816;2023-03-16T03:56:04;16.05;;;8.05;;
62654;SDS011;48717;55.556;37.816;2023-03-16T03:58:32;21.08;;;10.45;;
62654;SDS011;48717;55.556;37.816;2023-03-16T04:00:59;19.80;;;9.52;;
62654;SDS011;48717;55.556;37.816;2023-03-16T04:03:27;17.42;;;9.23;;
62654;SDS011;48717;55.556;37.816;2023-03-16T04:05:54;20.15;;;10.10;;
62654;SDS011;48717;55.556;37.816;2023-03-16T04:08:21;15.68;;;6.32;;
62654;SDS011;48717;55.556;37.816;2023-03-16T04:10:49;16.10;;;8.40;;
62654;SDS011;48717;55.556;37.816;2023-03-16T04:15:47;18.05;;;9.63;;
62654;SDS011;48717;55.556;37.816;2023-03-16T04:18:18;22.90;;;9.55;;
62654;SDS011;48717;55.556;37.816;2023-03-16T04:20:45;30.00;;;11.63;;
62654;SDS011;48717;55.556;37.816;2023-03-16T04:23:16;16.60;;;7.57;;
62654;SDS011;48717;55.556;37.816;2023-03-16T04:25:45;10.07;;;4.95;;
62654;SDS011;48717;55.556;37.816;2023-03-16T04:28:16;15.75;;;8.32;;
62654;SDS011;48717;55.556;37.816;2023-03-16T04:30:46;18.27;;;8.50;;
62654;SDS011;48717;55.556;37.816;2023-03-16T04:33:21;15.70;;;8.60;;
62654;SDS011;48717;55.556;37.816;2023-03-16T04:35:48;17.65;;;9.15;;
62654;SDS011;48717;55.556;37.816;2023-03-16T04:38:16;17.40;;;9.63;;
62654;SDS011;48717;55.556;37.816;2023-03-16T04:40:54;15.30;;;7.30;;
62654;SDS011;48717;55.556;37.816;2023-03-16T04:43:26;14.93;;;8.05;;
62654;SDS011;48717;55.556;37.816;2023-03-16T04:46:00;14.25;;;7.25;;
62654;SDS011;48717;55.556;37.816;2023-03-16T04:48:29;14.53;;;7.80;;
62654;SDS011;48717;55.556;37.816;2023-03-16T04:50:58;15.25;;;8.32;;
62654;SDS011;48717;55.556;37.816;2023-03-16T04:53:30;12.57;;;6.00;;
62654;SDS011;48717;55.556;37.816;2023-03-16T04:56:03;9.40;;;4.97;;
62654;SDS011;48717;55.556;37.816;2023-03-16T04:58:31;18.42;;;9.00;;
62654;SDS011;48717;55.556;37.816;2023-03-16T05:01:00;20.98;;;9.93;;
62654;SDS011;48717;55.556;37.816;2023-03-16T05:03:30;20.63;;;9.85;;
62654;SDS011;48717;55.556;37.816;2023-03-16T05:05:58;18.90;;;9.18;;
62654;SDS011;48717;55.556;37.816;2023-03-16T05:08:27;21.90;;;9.50;;
62654;SDS011;48717;55.556;37.816;2023-03-16T05:10:57;30.70;;;13.23;;
62654;SDS011;48717;55.556;37.816;2023-03-16T05:13:28;17.33;;;8.82;;
62654;SDS011;48717;55.556;37.816;2023-03-16T05:15:58;25.50;;;12.00;;
62654;SDS011;48717;55.556;37.816;2023-03-16T05:18:29;28.40;;;12.80;;
62654;SDS011;48717;55.556;37.816;2023-03-16T05:20:58;19.15;;;9.00;;
62654;SDS011;48717;55.556;37.816;2023-03-16T05:23:36;26.80;;;11.88;;
62654;SDS011;48717;55.556;37.816;2023-03-16T05:26:03;15.85;;;8.57;;
62654;SDS011;48717;55.556;37.816;2023-03-16T05:31:04;20.52;;;9.10;;
62654;SDS011;48717;55.556;37.816;2023-03-16T05:33:40;17.05;;;8.23;;
62654;SDS011;48717;55.556;37.816;2023-03-16T05:36:11;11.45;;;6.15;;
62654;SDS011;48717;55.556;37.816;2023-03-16T05:38:41;19.75;;;9.18;;
62654;SDS011;48717;55.556;37.816;2023-03-16T05:41:11;19.90;;;8.75;;
62654;SDS011;48717;55.556;37.816;2023-03-16T05:44:02;22.65;;;9.38;;
62654;SDS011;48717;55.556;37.816;2023-03-16T05:46:44;18.80;;;9.40;;
62654;SDS011;48717;55.556;37.816;2023-03-16T05:49:12;20.48;;;9.93;;
62654;SDS011;48717;55.556;37.816;2023-03-16T05:51:39;24.13;;;9.93;;
62654;SDS011;48717;55.556;37.816;2023-03-16T05:54:07;23.42;;;10.75;;
62654;SDS011;48717;55.556;37.816;2023-03-16T05:56:41;29.25;;;11.27;;
62654;SDS011;48717;55.556;37.816;2023-03-16T05:59:10;27.20;;;12.63;;
62654;SDS011;48717;55.556;37.816;2023-03-16T06:01:38;29.60;;;12.80;;
62654;SDS011;48717;55.556;37.816;2023-03-16T06:04:06;23.48;;;10.55;;
62654;SDS011;48717;55.556;37.816;2023-03-16T06:06:38;25.30;;;10.68;;
62654;SDS011;48717;55.556;37.816;2023-03-16T06:09:13;28.92;;;12.75;;
62654;SDS011;48717;55.556;37.816;2023-03-16T06:11:40;23.50;;;11.20;;
62654;SDS011;48717;55.556;37.816;2023-03-16T06:14:07;28.48;;;12.25;;
62654;SDS011;48717;55.556;37.816;2023-03-16T06:16:35;30.05;;;11.45;;
62654;SDS011;48717;55.556;37.816;2023-03-16T06:19:02;28.70;;;12.88;;
62654;SDS011;48717;55.556;37.816;2023-03-16T06:21:31;31.13;;;13.25;;
62654;SDS011;48717;55.556;37.816;2023-03-16T06:24:05;24.98;;;11.80;;
62654;SDS011;48717;55.556;37.816;2023-03-16T06:26:35;27.55;;;12.85;;
62654;SDS011;48717;55.556;37.816;2023-03-16T06:29:05;24.98;;;11.20;;
62654;SDS011;48717;55.556;37.816;2023-03-16T06:31:35;27.42;;;12.50;;
62654;SDS011;48717;55.556;37.816;2023-03-16T06:34:03;23.08;;;10.88;;
62654;SDS011;48717;55.556;37.816;2023-03-16T06:36:30;27.35;;;12.35;;
62654;SDS011;48717;55.556;37.816;2023-03-16T06:39:00;27.98;;;12.35;;
62654;SDS011;48717;55.556;37.816;2023-03-16T06:41:35;29.58;;;12.70;;
62654;SDS011;48717;55.556;37.816;2023-03-16T06:44:02;30.10;;;12.60;;
62654;SDS011;48717;55.556;37.816;2023-03-16T06:46:34;24.42;;;11.35;;
62654;SDS011;48717;55.556;37.816;2023-03-16T06:49:02;32.13;;;13.32;;
62654;SDS011;48717;55.556;37.816;2023-03-16T06:51:31;28.45;;;11.55;;
62654;SDS011;48717;55.556;37.816;2023-03-16T06:53:58;28.67;;;12.20;;
62654;SDS011;48717;55.556;37.816;2023-03-16T06:56:26;27.45;;;12.55;;
62654;SDS011;48717;55.556;37.816;2023-03-16T06:58:54;30.35;;;13.18;;
62654;SDS011;48717;55.556;37.816;2023-03-16T07:01:21;24.80;;;11.57;;
62654;SDS011;48717;55.556;37.816;2023-03-16T07:03:48;29.13;;;13.70;;
62654;SDS011;48717;55.556;37.816;2023-03-16T07:06:23;25.92;;;13.25;;
62654;SDS011;48717;55.556;37.816;2023-03-16T07:08:50;22.92;;;11.52;;
62654;SDS011;48717;55.556;37.816;2023-03-16T07:11:18;28.95;;;13.65;;
62654;SDS011;48717;55.556;37.816;2023-03-16T07:13:45;28.10;;;14.00;;
62654;SDS011;48717;55.556;37.816;2023-03-16T07:16:14;28.95;;;14.23;;
62654;SDS011;48717;55.556;37.816;2023-03-16T07:18:42;31.23;;;14.73;;
62654;SDS011;48717;55.556;37.816;2023-03-16T07:21:12;34.83;;;15.63;;
62654;SDS011;48717;55.556;37.816;2023-03-16T07:23:40;31.38;;;15.02;;
62654;SDS011;48717;55.556;37.816;2023-03-16T07:26:09;31.52;;;14.85;;
62654;SDS011;48717;55.556;37.816;2023-03-16T07:28:47;33.03;;;15.82;;
62654;SDS011;48717;55.556;37.816;2023-03-16T07:31:14;35.92;;;17.05;;
62654;SDS011;48717;55.556;37.816;2023-03-16T07:33:42;32.53;;;16.98;;
62654;SDS011;48717;55.556;37.816;2023-03-16T07:36:14;36.30;;;17.33;;
62654;SDS011;48717;55.556;37.816;2023-03-16T07:38:50;28.80;;;14.27;;
62654;SDS011;48717;55.556;37.816;2023-03-16T07:41:17;28.45;;;14.55;;
62654;SDS011;48717;55.556;37.816;2023-03-16T07:43:44;27.40;;;13.75;;
62654;SDS011;48717;55.556;37.816;2023-03-16T07:46:13;26.05;;;14.55;;
62654;SDS011;48717;55.556;37.816;2023-03-16T07:48:41;30.98;;;14.75;;
62654;SDS011;48717;55.556;37.816;2023-03-16T07:51:11;32.37;;;14.20;;
62654;SDS011;48717;55.556;37.816;2023-03-16T07:53:40;29.63;;;14.00;;
62654;SDS011;48717;55.556;37.816;2023-03-16T07:56:25;27.98;;;13.98;;
62654;SDS011;48717;55.556;37.816;2023-03-16T07:58:59;29.88;;;15.10;;
62654;SDS011;48717;55.556;37.816;2023-03-16T08:01:29;29.10;;;14.60;;
62654;SDS011;48717;55.556;37.816;2023-03-16T08:03:56;30.50;;;14.05;;
62654;SDS011;48717;55.556;37.816;2023-03-16T08:06:24;36.25;;;16.70;;
62654;SDS011;48717;55.556;37.816;2023-03-16T08:08:53;26.42;;;14.18;;
62654;SDS011;48717;55.556;37.816;2023-03-16T08:11:30;24.10;;;13.88;;
62654;SDS011;48717;55.556;37.816;2023-03-16T08:16:52;27.17;;;12.93;;
62654;SDS011;48717;55.556;37.816;2023-03-16T08:19:22;24.20;;;13.82;;
62654;SDS011;48717;55.556;37.816;2023-03-16T08:21:53;24.77;;;13.30;;
62654;SDS011;48717;55.556;37.816;2023-03-16T08:24:34;26.75;;;13.32;;
62654;SDS011;48717;55.556;37.816;2023-03-16T08:27:03;23.42;;;13.13;;
62654;SDS011;48717;55.556;37.816;2023-03-16T08:29:32;24.17;;;13.85;;
62654;SDS011;48717;55.556;37.816;2023-03-16T08:32:02;25.45;;;13.80;;
62654;SDS011;48717;55.556;37.816;2023-03-16T08:34:37;24.00;;;12.75;;
62654;SDS011;48717;55.556;37.816;2023-03-16T08:37:06;26.13;;;12.88;;
62654;SDS011;48717;55.556;37.816;2023-03-16T08:39:34;25.45;;;13.05;;
62654;SDS011;48717;55.556;37.816;2023-03-16T08:42:05;23.98;;;13.65;;
62654;SDS011;48717;55.556;37.816;2023-03-16T08:44:43;25.35;;;13.70;;
62654;SDS011;48717;55.556;37.816;2023-03-16T08:47:10;23.20;;;12.55;;
62654;SDS011;48717;55.556;37.816;2023-03-16T08:49:40;26.10;;;13.75;;
62654;SDS011;48717;55.556;37.816;2023-03-16T08:52:10;26.08;;;13.52;;
62654;SDS011;48717;55.556;37.816;2023-03-16T08:54:38;27.98;;;14.05;;
62654;SDS011;48717;55.556;37.816;2023-03-16T08:57:18;26.30;;;13.38;;
62654;SDS011;48717;55.556;37.816;2023-03-16T08:59:45;26.70;;;13.27;;
62654;SDS011;48717;55.556;37.816;2023-03-16T09:02:12;25.85;;;13.40;;
62654;SDS011;48717;55.556;37.816;2023-03-16T09:04:40;24.27;;;13.50;;
62654;SDS011;48717;55.556;37.816;2023-03-16T09:07:08;25.20;;;13.25;;
62654;SDS011;48717;55.556;37.816;2023-03-16T09:09:37;31.98;;;13.88;;
62654;SDS011;48717;55.556;37.816;2023-03-16T09:12:05;26.33;;;13.25;;
62654;SDS011;48717;55.556;37.816;2023-03-16T09:14:33;28.50;;;12.63;;
62654;SDS011;48717;55.556;37.816;2023-03-16T09:17:02;23.30;;;13.27;;
62654;SDS011;48717;55.556;37.816;2023-03-16T09:19:31;26.85;;;14.05;;
62654;SDS011;48717;55.556;37.816;2023-03-16T09:22:17;25.90;;;12.23;;
62654;SDS011;48717;55.556;37.816;2023-03-16T09:24:45;23.15;;;12.88;;
62654;SDS011;48717;55.556;37.816;2023-03-16T09:27:14;26.52;;;12.60;;
62654;SDS011;48717;55.556;37.816;2023-03-16T09:29:42;21.83;;;11.75;;
62654;SDS011;48717;55.556;37.816;2023-03-16T09:32:09;21.63;;;11.70;;
62654;SDS011;48717;55.556;37.816;2023-03-16T09:34:36;21.38;;;11.63;;
62654;SDS011;48717;55.556;37.816;2023-03-16T09:37:04;22.98;;;12.27;;
62654;SDS011;48717;55.556;37.816;2023-03-16T09:39:31;22.25;;;11.93;;
62654;SDS011;48717;55.556;37.816;2023-03-16T09:42:12;21.83;;;11.95;;
62654;SDS011;48717;55.556;37.816;2023-03-16T09:44:53;22.48;;;12.23;;
62654;SDS011;48717;55.556;37.816;2023-03-16T09:47:29;22.38;;;12.32;;
62654;SDS011;48717;55.556;37.816;2023-03-16T09:50:00;20.63;;;11.15;;
62654;SDS011;48717;55.556;37.816;2023-03-16T09:57:59;22.20;;;12.70;;
62654;SDS011;48717;55.556;37.816;2023-03-16T10:00:33;19.80;;;11.13;;
62654;SDS011;48717;55.556;37.816;2023-03-16T10:03:15;17.33;;;10.25;;
62654;SDS011;48717;55.556;37.816;2023-03-16T10:05:44;19.98;;;10.93;;
62654;SDS011;48717;55.556;37.816;2023-03-16T10:08:17;19.92;;;10.48;;
62654;SDS011;48717;55.556;37.816;2023-03-16T10:15:47;17.80;;;11.07;;
62654;SDS011;48717;55.556;37.816;2023-03-16T10:18:18;20.42;;;11.32;;
62654;SDS011;48717;55.556;37.816;2023-03-16T10:20:50;17.90;;;10.45;;
62654;SDS011;48717;55.556;37.816;2023-03-16T10:23:20;18.88;;;10.73;;
62654;SDS011;48717;55.556;37.816;2023-03-16T10:25:53;19.67;;;10.93;;
62654;SDS011;48717;55.556;37.816;2023-03-16T10:28:22;17.17;;;10.52;;
62654;SDS011;48717;55.556;37.816;2023-03-16T10:30:52;17.60;;;9.52;;
62654;SDS011;48717;55.556;37.816;2023-03-16T10:33:22;15.63;;;9.50;;
62654;SDS011;48717;55.556;37.816;2023-03-16T10:38:46;16.33;;;8.73;;
62654;SDS011;48717;55.556;37.816;2023-03-16T10:43:47;16.10;;;9.40;;
62654;SDS011;48717;55.556;37.816;2023-03-16T10:46:17;20.63;;;10.45;;
62654;SDS011;48717;55.556;37.816;2023-03-16T10:48:58;19.35;;;10.38;;
62654;SDS011;48717;55.556;37.816;2023-03-16T10:51:32;17.67;;;9.93;;
62654;SDS011;48717;55.556;37.816;2023-03-16T10:54:14;16.80;;;9.43;;
62654;SDS011;48717;55.556;37.816;2023-03-16T10:56:45;16.92;;;9.35;;
62654;SDS011;48717;55.556;37.816;2023-03-16T10:59:13;17.90;;;9.35;;
62654;SDS011;48717;55.556;37.816;2023-03-16T11:01:43;18.60;;;10.30;;
62654;SDS011;48717;55.556;37.816;2023-03-16T11:04:17;18.35;;;10.38;;
62654;SDS011;48717;55.556;37.816;2023-03-16T11:06:53;22.02;;;11.05;;
62654;SDS011;48717;55.556;37.816;2023-03-16T11:09:40;23.20;;;12.68;;
62654;SDS011;48717;55.556;37.816;2023-03-16T11:12:14;21.30;;;12.13;;
62654;SDS011;48717;55.556;37.816;2023-03-16T11:14:52;22.48;;;12.85;;
62654;SDS011;48717;55.556;37.816;2023-03-16T11:17:38;25.58;;;13.73;;
62654;SDS011;48717;55.556;37.816;2023-03-16T11:20:12;20.83;;;11.75;;
62654;SDS011;48717;55.556;37.816;2023-03-16T11:22:43;23.83;;;12.38;;
62654;SDS011;48717;55.556;37.816;2023-03-16T11:33:10;27.45;;;14.43;;
62654;SDS011;48717;55.556;37.816;2023-03-16T11:41:24;29.20;;;14.20;;
62654;SDS011;48717;55.556;37.816;2023-03-16T11:43:55;30.98;;;15.30;;
62654;SDS011;48717;55.556;37.816;2023-03-16T11:46:28;31.25;;;15.82;;
62654;SDS011;48717;55.556;37.816;2023-03-16T11:55:18;34.80;;;17.15;;
62654;SDS011;48717;55.556;37.816;2023-03-16T11:57:57;32.40;;;16.58;;
62654;SDS011;48717;55.556;37.816;2023-03-16T12:03:30;34.85;;;15.95;;
62654;SDS011;48717;55.556;37.816;2023-03-16T12:14:31;31.05;;;16.27;;
62654;SDS011;48717;55.556;37.816;2023-03-16T12:17:22;28.42;;;15.52;;
62654;SDS011;48717;55.556;37.816;2023-03-16T12:22:29;29.52;;;15.38;;
62654;SDS011;48717;55.556;37.816;2023-03-16T12:24:58;28.95;;;13.60;;
62654;SDS011;48717;55.556;37.816;2023-03-16T12:27:28;28.20;;;13.77;;
62654;SDS011;48717;55.556;37.816;2023-03-16T12:32:37;26.70;;;12.52;;
62654;SDS011;48717;55.556;37.816;2023-03-16T12:40:45;25.10;;;12.52;;
62654;SDS011;48717;55.556;37.816;2023-03-16T12:46:09;27.13;;;13.07;;
62654;SDS011;48717;55.556;37.816;2023-03-16T12:49:01;28.20;;;14.10;;
62654;SDS011;48717;55.556;37.816;2023-03-16T12:51:32;28.83;;;13.93;;
62654;SDS011;48717;55.556;37.816;2023-03-16T12:54:04;30.80;;;14.60;;
62654;SDS011;48717;55.556;37.816;2023-03-16T12:56:34;26.73;;;12.85;;
62654;SDS011;48717;55.556;37.816;2023-03-16T12:59:14;26.10;;;13.07;;
62654;SDS011;48717;55.556;37.816;2023-03-16T13:01:44;23.33;;;11.80;;
62654;SDS011;48717;55.556;37.816;2023-03-16T13:04:23;23.58;;;11.93;;
62654;SDS011;48717;55.556;37.816;2023-03-16T13:07:02;25.67;;;12.55;;
62654;SDS011;48717;55.556;37.816;2023-03-16T13:09:34;24.40;;;12.45;;
62654;SDS011;48717;55.556;37.816;2023-03-16T13:12:07;25.27;;;12.48;;
62654;SDS011;48717;55.556;37.816;2023-03-16T13:14:42;28.75;;;12.98;;
62654;SDS011;48717;55.556;37.816;2023-03-16T13:19:43;23.08;;;11.85;;
62654;SDS011;48717;55.556;37.816;2023-03-16T13:22:29;23.35;;;11.15;;
62654;SDS011;48717;55.556;37.816;2023-03-16T13:27:55;27.05;;;12.65;;
62654;SDS011;48717;55.556;37.816;2023-03-16T13:30:27;25.92;;;12.38;;
62654;SDS011;48717;55.556;37.816;2023-03-16T13:33:20;24.98;;;12.77;;
62654;SDS011;48717;55.556;37.816;2023-03-16T13:35:51;27.75;;;13.50;;
62654;SDS011;48717;55.556;37.816;2023-03-16T13:38:20;27.77;;;13.98;;
62654;SDS011;48717;55.556;37.816;2023-03-16T13:40:56;26.35;;;12.63;;
62654;SDS011;48717;55.556;37.816;2023-03-16T13:43:28;22.48;;;10.82;;
62654;SDS011;48717;55.556;37.816;2023-03-16T13:48:25;23.65;;;12.50;;
62654;SDS011;48717;55.556;37.816;2023-03-16T13:50:53;26.13;;;14.15;;
62654;SDS011;48717;55.556;37.816;2023-03-16T13:53:24;28.60;;;14.07;;
62654;SDS011;48717;55.556;37.816;2023-03-16T13:55:57;30.40;;;15.52;;
62654;SDS011;48717;55.556;37.816;2023-03-16T13:58:28;28.48;;;15.27;;
62654;SDS011;48717;55.556;37.816;2023-03-16T14:01:01;35.28;;;16.88;;
62654;SDS011;48717;55.556;37.816;2023-03-16T14:06:04;35.28;;;16.63;;
62654;SDS011;48717;55.556;37.816;2023-03-16T14:08:32;41.40;;;18.42;;
62654;SDS011;48717;55.556;37.816;2023-03-16T14:11:00;38.50;;;18.30;;
62654;SDS011;48717;55.556;37.816;2023-03-16T14:15:59;42.75;;;18.60;;
62654;SDS011;48717;55.556;37.816;2023-03-16T14:18:33;38.42;;;17.95;;
62654;SDS011;48717;55.556;37.816;2023-03-16T14:21:06;36.00;;;17.00;;
62654;SDS011;48717;55.556;37.816;2023-03-16T14:23:39;37.40;;;18.48;;
62654;SDS011;48717;55.556;37.816;2023-03-16T14:26:13;39.83;;;16.60;;
62654;SDS011;48717;55.556;37.816;2023-03-16T14:28:52;39.08;;;18.77;;
62654;SDS011;48717;55.556;37.816;2023-03-16T14:31:21;43.25;;;19.52;;
62654;SDS011;48717;55.556;37.816;2023-03-16T14:33:48;38.05;;;18.95;;
62654;SDS011;48717;55.556;37.816;2023-03-16T14:36:32;47.28;;;20.35;;
62654;SDS011;48717;55.556;37.816;2023-03-16T14:39:12;41.17;;;18.90;;
62654;SDS011;48717;55.556;37.816;2023-03-16T14:41:48;39.33;;;18.55;;
62654;SDS011;48717;55.556;37.816;2023-03-16T14:44:19;39.38;;;18.80;;
62654;SDS011;48717;55.556;37.816;2023-03-16T14:46:48;45.13;;;18.50;;
62654;SDS011;48717;55.556;37.816;2023-03-16T14:49:29;40.35;;;17.83;;
62654;SDS011;48717;55.556;37.816;2023-03-16T14:52:03;41.25;;;18.00;;
62654;SDS011;48717;55.556;37.816;2023-03-16T14:54:33;36.45;;;16.65;;
62654;SDS011;48717;55.556;37.816;2023-03-16T14:57:01;37.05;;;17.45;;
62654;SDS011;48717;55.556;37.816;2023-03-16T14:59:31;37.38;;;15.98;;
62654;SDS011;48717;55.556;37.816;2023-03-16T15:01:59;37.03;;;16.17;;
62654;SDS011;48717;55.556;37.816;2023-03-16T15:04:29;41.38;;;16.70;;
62654;SDS011;48717;55.556;37.816;2023-03-16T15:07:00;39.13;;;18.05;;
62654;SDS011;48717;55.556;37.816;2023-03-16T15:09:34;39.78;;;17.23;;
62654;SDS011;48717;55.556;37.816;2023-03-16T15:12:16;42.85;;;18.60;;
62654;SDS011;48717;55.556;37.816;2023-03-16T15:14:47;46.78;;;18.73;;
62654;SDS011;48717;55.556;37.816;2023-03-16T15:17:33;52.03;;;20.40;;
62654;SDS011;48717;55.556;37.816;2023-03-16T15:20:01;71.13;;;28.77;;
62654;SDS011;48717;55.556;37.816;2023-03-16T15:22:32;54.50;;;20.45;;
62654;SDS011;48717;55.556;37.816;2023-03-16T15:28:17;54.25;;;20.90;;
62654;SDS011;48717;55.556;37.816;2023-03-16T15:30:47;68.82;;;21.75;;
62654;SDS011;48717;55.556;37.816;2023-03-16T15:33:18;61.92;;;22.13;;
62654;SDS011;48717;55.556;37.816;2023-03-16T15:35:47;59.58;;;22.23;;
62654;SDS011;48717;55.556;37.816;2023-03-16T15:41:00;69.35;;;23.88;;
62654;SDS011;48717;55.556;37.816;2023-03-16T15:43:28;58.25;;;21.30;;
62654;SDS011;48717;55.556;37.816;2023-03-16T15:45:57;64.25;;;23.33;;
62654;SDS011;48717;55.556;37.816;2023-03-16T15:48:29;58.83;;;21.65;;
62654;SDS011;48717;55.556;37.816;2023-03-16T15:50:58;55.15;;;22.33;;
62654;SDS011;48717;55.556;37.816;2023-03-16T15:53:42;55.33;;;20.92;;
62654;SDS011;48717;55.556;37.816;2023-03-16T15:56:13;65.65;;;22.33;;
62654;SDS011;48717;55.556;37.816;2023-03-16T16:01:16;59.72;;;21.98;;
62654;SDS011;48717;55.556;37.816;2023-03-16T16:03:48;55.08;;;21.85;;
62654;SDS011;48717;55.556;37.816;2023-03-16T16:06:16;53.45;;;21.63;;
62654;SDS011;48717;55.556;37.816;2023-03-16T16:08:43;59.55;;;23.33;;
62654;SDS011;48717;55.556;37.816;2023-03-16T16:11:29;65.05;;;23.10;;
62654;SDS011;48717;55.556;37.816;2023-03-16T16:13:56;56.17;;;22.63;;
62654;SDS011;48717;55.556;37.816;2023-03-16T16:16:25;63.08;;;24.05;;
62654;SDS011;48717;55.556;37.816;2023-03-16T16:18:54;65.18;;;24.08;;